Time;durP1;ratioP1;P1;durP2;ratioP2;P2;SDS_P1;SDS_P2;PMS_P1;PMS_P2;Temp;Humidity;BMP_temperature;BMP_pressure;BME280_temperature;BME280_humidity;BME280_pressure;Samples;Min_cycle;Max_cycle;Signal;HPM_P1;HPM_P2
2022/07/09 00:01:37;;;;;;;;;;;17.20;99.90;;;;;;9185613;19;20010;-76
2022/07/09 00:04:45;;;;;;;9.25;4.88;;;17.20;99.90;;;;;;9183861;19;19925;-76
2022/07/09 00:07:49;;;;;;;10.05;5.45;;;17.40;99.90;;;;;;9182628;19;20043;-77
2022/07/09 00:10:53;;;;;;;9.85;4.82;;;17.20;99.90;;;;;;9184011;19;20489;-76
2022/07/09 00:14:00;;;;;;;9.18;5.28;;;17.30;99.90;;;;;;9183711;19;20553;-77
2022/07/09 00:17:04;;;;;;;7.97;4.40;;;17.20;99.90;;;;;;9183120;19;20018;-77
2022/07/09 00:20:09;;;;;;;11.82;4.97;;;17.30;99.90;;;;;;9183380;19;20014;-77
2022/07/09 00:23:13;;;;;;;11.40;5.60;;;17.30;99.90;;;;;;9183665;19;20019;-76
2022/07/09 00:26:18;;;;;;;10.38;5.97;;;17.30;99.90;;;;;;9182078;19;20501;-76
2022/07/09 00:29:24;;;;;;;10.40;5.65;;;17.20;99.90;;;;;;9180898;19;20381;-76
2022/07/09 00:32:28;;;;;;;8.98;5.53;;;17.20;99.90;;;;;;9182884;19;20018;-76
2022/07/09 00:35:32;;;;;;;10.85;5.63;;;17.00;99.90;;;;;;9183711;19;20007;-76
2022/07/09 00:38:36;;;;;;;10.57;5.13;;;16.90;99.90;;;;;;9182991;19;20021;-76
2022/07/09 00:41:41;;;;;;;10.90;5.90;;;17.10;99.90;;;;;;9183047;19;20007;-76
2022/07/09 00:44:47;;;;;;;9.57;5.20;;;17.10;99.90;;;;;;9182565;19;20349;-76
2022/07/09 00:47:51;;;;;;;11.52;5.30;;;16.80;99.90;;;;;;9180891;19;20018;-76
2022/07/09 00:50:56;;;;;;;11.35;4.63;;;17.10;99.90;;;;;;9181072;19;20010;-76
2022/07/09 00:54:01;;;;;;;10.75;5.38;;;16.90;99.90;;;;;;9182004;19;20017;-76
2022/07/09 00:57:08;;;;;;;8.82;4.93;;;17.00;99.90;;;;;;9182122;19;20548;-76
2022/07/09 01:00:17;;;;;;;9.95;4.88;;;17.10;99.90;;;;;;9181808;19;20073;-76
2022/07/09 01:03:21;;;;;;;9.18;4.78;;;17.00;99.90;;;;;;9181455;19;20382;-76
2022/07/09 01:06:25;;;;;;;8.98;4.25;;;17.20;99.90;;;;;;9181397;19;20010;-77
2022/07/09 01:09:31;;;;;;;11.73;3.92;;;17.10;99.90;;;;;;9179320;19;20015;-76
2022/07/09 01:12:35;;;;;;;8.52;4.00;;;17.20;99.90;;;;;;9181378;19;20015;-77
2022/07/09 01:15:41;;;;;;;8.63;3.97;;;17.30;99.90;;;;;;9181333;19;20015;-76
2022/07/09 01:18:47;;;;;;;8.00;3.95;;;17.00;99.90;;;;;;9180880;19;20006;-76
2022/07/09 01:21:54;;;;;;;7.40;3.63;;;17.10;99.90;;;;;;9180813;19;20293;-76
2022/07/09 01:24:59;;;;;;;8.30;3.97;;;17.10;99.90;;;;;;9180803;19;20007;-76
2022/07/09 01:28:05;;;;;;;8.45;4.35;;;16.90;99.90;;;;;;9178364;19;20010;-76
2022/07/09 01:31:08;;;;;;;11.27;4.22;;;16.90;99.90;;;;;;9180598;19;20482;-75
2022/07/09 01:34:12;;;;;;;11.13;4.20;;;16.80;99.90;;;;;;9182520;19;20018;-75
2022/07/09 01:37:20;;;;;;;10.05;4.30;;;16.70;99.90;;;;;;9180873;19;20017;-76
2022/07/09 01:40:24;;;;;;;10.70;4.25;;;16.60;99.90;;;;;;9179888;19;20047;-76
2022/07/09 01:43:30;;;;;;;7.03;3.88;;;16.60;99.90;;;;;;9179856;19;20023;-77
2022/07/09 01:46:34;;;;;;;11.05;4.35;;;17.20;99.90;;;;;;9180492;19;20028;-76
2022/07/09 01:49:38;;;;;;;12.50;4.80;;;16.80;99.90;;;;;;9177890;19;20015;-76
2022/07/09 01:52:45;;;;;;;8.32;4.35;;;16.90;99.90;;;;;;9179914;19;20363;-76
2022/07/09 01:55:48;;;;;;;8.00;4.70;;;16.90;99.90;;;;;;9180136;19;20007;-76
2022/07/09 01:58:52;;;;;;;10.68;4.70;;;16.70;99.90;;;;;;9179486;19;20018;-76
2022/07/09 02:01:56;;;;;;;10.75;4.85;;;16.70;99.90;;;;;;9179002;19;20010;-76
2022/07/09 02:05:00;;;;;;;10.18;5.47;;;16.90;99.90;;;;;;9179098;19;20346;-75
2022/07/09 02:08:07;;;;;;;10.02;5.07;;;16.60;99.90;;;;;;9178329;19;20014;-76
2022/07/09 02:11:10;;;;;;;12.00;5.85;;;16.60;99.90;;;;;;9177007;19;20022;-76
2022/07/09 02:14:14;;;;;;;11.98;5.55;;;16.70;99.90;;;;;;9178522;19;20489;-76
2022/07/09 02:17:18;;;;;;;13.20;5.88;;;16.70;99.90;;;;;;9178221;19;20653;-76
2022/07/09 02:20:23;;;;;;;10.98;5.40;;;16.50;99.90;;;;;;9178656;19;20066;-76
2022/07/09 02:23:30;;;;;;;11.15;5.53;;;16.50;99.90;;;;;;9178485;19;20043;-76
2022/07/09 02:26:33;;;;;;;10.70;5.50;;;16.60;99.90;;;;;;9177519;19;20047;-76
2022/07/09 02:29:37;;;;;;;10.70;5.70;;;16.60;99.90;;;;;;9176627;19;20014;-75
2022/07/09 02:32:41;;;;;;;12.75;5.40;;;16.40;99.90;;;;;;9181786;19;20011;-76
2022/07/09 02:35:45;;;;;;;10.85;5.43;;;16.70;99.90;;;;;;9178764;19;20036;-76
2022/07/09 02:38:52;;;;;;;17.52;6.30;;;16.40;99.90;;;;;;9177949;19;20356;-75
2022/07/09 02:41:55;;;;;;;15.45;5.90;;;16.50;99.90;;;;;;9178156;19;20498;-76
2022/07/09 02:45:00;;;;;;;12.55;5.85;;;16.50;99.90;;;;;;9177757;19;20070;-76
2022/07/09 02:48:04;;;;;;;13.65;5.55;;;16.50;99.90;;;;;;9177148;19;20015;-76
2022/07/09 02:51:08;;;;;;;16.48;6.18;;;16.50;99.90;;;;;;9176317;19;20017;-76
2022/07/09 02:54:14;;;;;;;12.88;6.15;;;16.50;99.90;;;;;;9182752;19;20018;-76
2022/07/09 02:57:18;;;;;;;12.40;6.25;;;16.30;99.90;;;;;;9187889;19;20015;-76
2022/07/09 03:00:22;;;;;;;13.88;5.85;;;16.30;99.90;;;;;;9187771;19;20014;-76
2022/07/09 03:03:26;;;;;;;13.75;6.22;;;16.30;99.90;;;;;;9189493;19;20023;-76
2022/07/09 03:06:30;;;;;;;13.02;6.13;;;16.30;99.90;;;;;;9191199;19;20523;-76
2022/07/09 03:09:36;;;;;;;17.58;6.38;;;16.40;99.90;;;;;;9191930;19;20054;-75
2022/07/09 03:12:40;;;;;;;14.68;5.68;;;16.20;99.90;;;;;;9191634;19;20018;-76
2022/07/09 03:15:44;;;;;;;10.63;5.97;;;16.20;99.90;;;;;;9186412;19;20019;-75
2022/07/09 03:18:48;;;;;;;12.95;5.82;;;16.20;99.90;;;;;;9185698;19;20034;-76
2022/07/09 03:21:52;;;;;;;13.38;6.10;;;16.20;99.90;;;;;;9186419;19;20017;-76
2022/07/09 03:24:59;;;;;;;11.85;6.20;;;16.20;99.90;;;;;;9186326;19;20025;-76
2022/07/09 03:28:03;;;;;;;18.88;5.53;;;16.20;99.90;;;;;;9182879;19;20010;-75
2022/07/09 03:31:07;;;;;;;14.75;6.40;;;16.20;99.90;;;;;;9186096;19;20015;-75
2022/07/09 03:34:11;;;;;;;13.82;5.15;;;16.00;99.90;;;;;;9185415;19;20026;-75
2022/07/09 03:37:14;;;;;;;13.02;5.60;;;16.10;99.90;;;;;;9186470;19;20393;-74
2022/07/09 03:40:21;;;;;;;8.75;5.32;;;16.30;99.90;;;;;;9185004;19;20089;-76
2022/07/09 03:43:25;;;;;;;12.85;5.47;;;16.10;99.90;;;;;;9185449;19;20074;-75
2022/07/09 03:46:29;;;;;;;13.75;5.05;;;16.00;99.90;;;;;;9184866;19;20022;-75
2022/07/09 03:49:33;;;;;;;11.50;5.07;;;16.20;99.90;;;;;;9182845;19;20037;-75
2022/07/09 03:52:38;;;;;;;14.23;5.65;;;15.90;99.90;;;;;;9181728;19;20422;-75
2022/07/09 03:55:44;;;;;;;12.88;5.32;;;16.10;99.90;;;;;;9184868;19;20023;-76
2022/07/09 03:58:48;;;;;;;10.45;5.35;;;16.10;99.90;;;;;;9184435;19;20014;-75
2022/07/09 04:01:52;;;;;;;14.45;5.22;;;16.20;99.90;;;;;;9184735;19;20014;-76
2022/07/09 04:04:57;;;;;;;12.18;5.70;;;16.00;99.90;;;;;;9183186;19;20428;-75
2022/07/09 04:08:01;;;;;;;10.32;5.10;;;15.90;99.90;;;;;;9184410;19;20043;-76
2022/07/09 04:11:07;;;;;;;14.00;5.65;;;16.00;99.90;;;;;;9183922;19;20029;-75
2022/07/09 04:14:12;;;;;;;13.85;5.63;;;16.00;99.90;;;;;;9183870;19;20014;-76
2022/07/09 04:17:16;;;;;;;11.52;5.53;;;15.90;99.90;;;;;;9183197;19;20014;-75
2022/07/09 04:20:21;;;;;;;12.25;5.10;;;15.90;99.90;;;;;;9183575;19;20364;-75
2022/07/09 04:23:24;;;;;;;11.68;4.80;;;15.90;99.90;;;;;;9183231;19;20439;-75
2022/07/09 04:26:31;;;;;;;10.15;4.82;;;16.00;99.90;;;;;;9182476;19;20017;-76
2022/07/09 04:29:35;;;;;;;15.90;5.60;;;16.00;99.90;;;;;;9181947;19;20011;-75
2022/07/09 04:32:40;;;;;;;14.02;5.10;;;15.90;99.90;;;;;;9186292;19;20043;-75
2022/07/09 04:35:44;;;;;;;12.77;5.45;;;15.90;99.90;;;;;;9182684;19;20491;-75
2022/07/09 04:38:48;;;;;;;13.32;5.68;;;16.00;99.90;;;;;;9182611;19;20471;-75
2022/07/09 04:41:56;;;;;;;11.57;5.50;;;16.20;99.90;;;;;;9182616;19;20044;-75
2022/07/09 04:45:00;;;;;;;10.00;4.80;;;16.10;99.90;;;;;;9182314;19;20015;-76
2022/07/09 04:48:05;;;;;;;10.65;4.70;;;16.10;99.90;;;;;;9181723;19;20018;-76
2022/07/09 04:51:09;;;;;;;11.52;4.80;;;16.00;99.90;;;;;;9181015;19;20018;-76
2022/07/09 04:54:13;;;;;;;12.93;5.22;;;16.10;99.90;;;;;;9181790;19;20070;-75
2022/07/09 04:57:20;;;;;;;11.32;5.10;;;16.00;99.90;;;;;;9182787;19;20021;-75
2022/07/09 05:00:23;;;;;;;9.43;4.78;;;16.10;99.90;;;;;;9182049;19;20412;-75
2022/07/09 05:03:28;;;;;;;10.98;5.15;;;16.50;99.90;;;;;;9181580;19;20006;-75
2022/07/09 05:06:32;;;;;;;11.23;5.15;;;16.30;99.90;;;;;;9181393;19;20353;-75
2022/07/09 05:09:36;;;;;;;11.88;5.03;;;16.10;99.90;;;;;;9179653;19;20010;-75
2022/07/09 05:12:42;;;;;;;12.77;4.53;;;16.20;99.90;;;;;;9181240;19;20015;-75
2022/07/09 05:15:46;;;;;;;10.18;4.57;;;15.90;99.90;;;;;;9179125;19;20015;-75
2022/07/09 05:18:50;;;;;;;11.45;4.85;;;16.00;99.90;;;;;;9181104;19;20025;-76
2022/07/09 05:21:54;;;;;;;10.73;5.22;;;16.30;99.90;;;;;;9180796;19;20018;-75
2022/07/09 05:24:58;;;;;;;10.55;4.45;;;16.10;99.90;;;;;;9180820;19;20039;-76
2022/07/09 05:28:05;;;;;;;12.50;5.05;;;16.10;99.90;;;;;;9178335;19;20027;-75
2022/07/09 05:31:09;;;;;;;12.82;4.72;;;16.00;99.90;;;;;;9180115;19;20022;-75
2022/07/09 05:34:16;;;;;;;15.00;5.18;;;16.20;99.90;;;;;;9178576;19;20014;-75
2022/07/09 05:37:20;;;;;;;9.70;4.43;;;16.20;99.90;;;;;;9180267;19;20017;-75
2022/07/09 05:40:24;;;;;;;9.88;4.47;;;15.80;99.90;;;;;;9179861;19;20070;-75
2022/07/09 05:43:30;;;;;;;14.30;5.40;;;16.20;99.90;;;;;;9179695;19;20086;-76
2022/07/09 05:46:34;;;;;;;8.23;4.25;;;16.20;99.90;;;;;;9180089;19;20066;-75
2022/07/09 05:49:39;;;;;;;8.93;3.92;;;16.30;99.90;;;;;;9178081;19;20075;-75
2022/07/09 05:52:43;;;;;;;10.75;4.22;;;16.20;99.90;;;;;;9177956;19;20014;-75
2022/07/09 05:55:47;;;;;;;7.20;4.10;;;16.20;99.90;;;;;;9180019;19;20022;-75
2022/07/09 05:58:53;;;;;;;9.88;4.22;;;16.30;99.90;;;;;;9180002;19;20498;-75
2022/07/09 06:01:57;;;;;;;10.68;3.72;;;16.10;99.90;;;;;;9179317;19;20017;-75
2022/07/09 06:05:01;;;;;;;11.23;3.63;;;16.20;99.90;;;;;;9178881;19;20337;-74
2022/07/09 06:08:05;;;;;;;7.47;3.70;;;16.20;99.90;;;;;;9177503;19;20103;-75
2022/07/09 06:11:11;;;;;;;10.23;3.83;;;16.30;99.90;;;;;;9177614;19;20015;-75
2022/07/09 06:14:19;;;;;;;7.63;3.67;;;16.40;99.90;;;;;;9178420;19;20015;-75
2022/07/09 06:17:22;;;;;;;9.80;3.58;;;16.30;99.90;;;;;;9178072;19;20017;-75
2022/07/09 06:20:26;;;;;;;10.95;3.53;;;16.10;99.90;;;;;;9178258;19;20105;-75
2022/07/09 06:23:30;;;;;;;11.43;3.83;;;16.30;99.90;;;;;;9178382;19;20089;-75
2022/07/09 06:26:34;;;;;;;10.38;3.88;;;16.30;99.90;;;;;;9177318;19;20380;-75
2022/07/09 06:29:41;;;;;;;9.25;3.90;;;16.20;99.90;;;;;;9177137;19;20375;-75
2022/07/09 06:32:45;;;;;;;7.13;3.72;;;16.20;99.90;;;;;;9182024;19;20011;-75
2022/07/09 06:35:49;;;;;;;7.43;3.67;;;16.30;99.90;;;;;;9178227;19;20013;-75
2022/07/09 06:42:09;;;;;;;10.70;4.00;;;16.50;99.90;;;;;;9177704;19;20010;-75
2022/07/09 06:45:16;;;;;;;7.20;3.63;;;16.60;99.90;;;;;;9177863;19;20026;-76
2022/07/09 06:48:20;;;;;;;7.75;4.05;;;16.60;99.90;;;;;;9177984;19;20501;-75
2022/07/09 06:51:25;;;;;;;4.82;3.20;;;16.60;99.90;;;;;;9175671;19;20074;-75
2022/07/09 06:54:29;;;;;;;8.88;4.03;;;16.60;99.90;;;;;;9177415;19;20021;-75
2022/07/09 06:57:34;;;;;;;9.77;3.90;;;16.50;99.90;;;;;;9177245;19;20023;-75
2022/07/09 07:00:40;;;;;;;8.15;3.60;;;16.50;99.90;;;;;;9177771;19;20015;-75
2022/07/09 07:03:44;;;;;;;9.55;4.05;;;16.40;99.90;;;;;;9177051;19;20389;-75
2022/07/09 07:06:49;;;;;;;11.15;3.75;;;16.60;99.90;;;;;;9177379;19;20013;-76
2022/07/09 07:09:53;;;;;;;9.57;4.20;;;16.50;99.90;;;;;;9175938;19;20014;-75
2022/07/09 07:12:57;;;;;;;5.70;3.08;;;16.60;99.90;;;;;;9176713;19;20051;-75
2022/07/09 07:16:04;;;;;;;6.28;3.03;;;16.60;99.90;;;;;;9177143;19;20394;-76
2022/07/09 07:19:08;;;;;;;5.93;3.50;;;16.60;99.90;;;;;;9176377;19;20011;-75
2022/07/09 07:22:12;;;;;;;9.60;3.70;;;16.70;99.90;;;;;;9176626;19;20018;-76
2022/07/09 07:25:15;;;;;;;8.82;3.08;;;16.70;99.90;;;;;;9177006;19;20110;-76
2022/07/09 07:28:19;;;;;;;6.25;3.40;;;16.70;99.90;;;;;;9176276;19;20533;-75
2022/07/09 07:31:26;;;;;;;8.27;3.20;;;16.90;99.90;;;;;;9175384;19;20129;-75
2022/07/09 07:34:30;;;;;;;10.80;3.53;;;16.90;99.90;;;;;;9176238;19;20500;-75
2022/07/09 07:37:34;;;;;;;5.95;3.28;;;16.80;99.90;;;;;;9176222;19;20039;-76
2022/07/09 07:40:39;;;;;;;9.70;3.10;;;17.00;99.90;;;;;;9181857;19;20487;-76
2022/07/09 07:43:43;;;;;;;6.55;2.95;;;17.00;99.90;;;;;;9185245;19;20047;-75
2022/07/09 07:46:49;;;;;;;10.20;3.35;;;17.00;99.90;;;;;;9185152;19;20483;-75
2022/07/09 07:49:54;;;;;;;4.70;2.70;;;17.00;99.90;;;;;;9183437;19;20006;-75
2022/07/09 07:52:59;;;;;;;9.00;2.70;;;17.20;99.90;;;;;;9184360;19;20007;-75
2022/07/09 07:56:03;;;;;;;6.35;2.83;;;17.30;99.90;;;;;;9184406;19;20115;-75
2022/07/09 07:59:07;;;;;;;8.20;3.58;;;17.30;99.90;;;;;;9185035;19;20066;-74
2022/07/09 08:02:14;;;;;;;10.07;3.28;;;17.20;99.90;;;;;;9184517;19;20023;-75
2022/07/09 08:05:18;;;;;;;;;;;17.40;99.90;;;;;;9184629;19;20010;-76
2022/07/09 08:08:22;;;;;;;5.90;2.53;;;17.40;99.90;;;;;;9183934;19;19951;-76
2022/07/09 08:11:26;;;;;;;6.85;2.60;;;17.30;99.90;;;;;;9181195;19;20018;-76
2022/07/09 08:14:30;;;;;;;7.38;2.35;;;17.50;99.90;;;;;;9183825;19;20054;-77
2022/07/09 08:17:36;;;;;;;6.28;2.30;;;17.50;99.90;;;;;;9183091;19;20017;-76
2022/07/09 08:20:40;;;;;;;4.72;2.22;;;17.40;99.90;;;;;;9183797;19;20015;-76
2022/07/09 08:23:54;;;;;;;5.80;2.00;;;17.40;99.90;;;;;;9183358;19;20487;-75
2022/07/09 08:26:58;;;;;;;5.25;2.28;;;17.50;99.90;;;;;;9181699;19;20479;-77
2022/07/09 08:30:02;;;;;;;7.15;2.13;;;17.60;99.90;;;;;;9182378;19;20447;-76
2022/07/09 08:33:09;;;;;;;2.70;1.80;;;17.30;99.90;;;;;;9187997;19;20367;-75
2022/07/09 08:36:13;;;;;;;7.40;2.03;;;17.50;99.90;;;;;;9182938;19;20018;-76
2022/07/09 08:39:16;;;;;;;5.35;1.80;;;17.60;99.90;;;;;;9182470;19;20377;-76
2022/07/09 08:42:20;;;;;;;4.30;2.00;;;17.70;99.90;;;;;;9182398;19;20510;-76
2022/07/09 08:45:26;;;;;;;8.38;2.25;;;17.90;99.90;;;;;;9182766;19;20014;-77
2022/07/09 08:48:36;;;;;;;6.43;2.10;;;17.60;99.90;;;;;;9182047;19;20010;-76
2022/07/09 08:51:40;;;;;;;8.38;2.60;;;17.80;99.90;;;;;;9177025;19;20437;-76
2022/07/09 08:54:46;;;;;;;4.10;1.83;;;17.80;99.90;;;;;;9181819;19;20082;-76
2022/07/09 08:57:50;;;;;;;4.50;1.95;;;17.60;99.90;;;;;;9182058;19;20010;-76
2022/07/09 09:00:57;;;;;;;4.15;1.98;;;17.90;99.90;;;;;;9181611;19;20007;-77
2022/07/09 09:04:04;;;;;;;5.72;2.22;;;18.10;99.90;;;;;;9181703;19;20015;-76
2022/07/09 09:07:15;;;;;;;6.32;2.20;;;18.10;99.90;;;;;;9181875;19;20374;-75
2022/07/09 09:10:27;;;;;;;4.13;1.98;;;18.10;99.90;;;;;;9180849;19;20018;-77
2022/07/09 09:13:31;;;;;;;7.78;2.50;;;18.20;99.90;;;;;;9181955;19;20017;-77
2022/07/09 09:16:44;;;;;;;10.07;3.83;;;18.30;99.90;;;;;;9181550;19;20529;-76
2022/07/09 09:19:50;;;;;;;5.10;2.55;;;18.20;99.90;;;;;;9180370;19;20018;-75
2022/07/09 09:22:59;;;;;;;5.88;2.20;;;18.30;99.90;;;;;;9180802;19;20024;-77
2022/07/09 09:26:12;;;;;;;4.55;2.08;;;18.40;99.90;;;;;;9179450;19;20010;-78
2022/07/09 09:29:16;;;;;;;4.72;1.95;;;18.40;99.90;;;;;;9186843;19;20007;-77
2022/07/09 09:32:24;;;;;;;5.28;2.10;;;18.10;99.90;;;;;;9199494;19;20028;-77
2022/07/09 09:35:35;;;;;;;5.82;2.22;;;18.20;99.90;;;;;;9188915;19;20357;-78
2022/07/09 09:38:39;;;;;;;4.43;1.88;;;18.40;99.90;;;;;;9183316;19;20013;-77
2022/07/09 09:41:44;;;;;;;6.82;1.95;;;18.50;99.90;;;;;;9180385;19;20500;-77
2022/07/09 09:44:52;;;;;;;3.60;2.10;;;18.60;99.90;;;;;;9180059;19;20010;-77
2022/07/09 09:47:56;;;;;;;6.30;2.25;;;18.60;99.90;;;;;;9179741;19;20062;-78
2022/07/09 09:51:04;;;;;;;5.85;2.30;;;18.70;99.90;;;;;;9178500;19;20018;-77
2022/07/09 09:54:08;;;;;;;9.52;3.80;;;18.80;99.90;;;;;;9179183;19;20018;-77
2022/07/09 09:57:14;;;;;;;7.03;2.25;;;18.80;99.90;;;;;;9178884;19;20011;-77
2022/07/09 10:00:18;;;;;;;5.60;2.08;;;18.70;99.90;;;;;;9179719;19;20353;-76
2022/07/09 10:03:24;;;;;;;5.60;2.00;;;18.70;99.90;;;;;;9178389;19;20007;-76
2022/07/09 10:06:30;;;;;;;4.78;1.90;;;18.80;99.90;;;;;;9179163;19;20437;-76
2022/07/09 10:09:35;;;;;;;7.28;2.53;;;18.70;99.90;;;;;;9179522;19;20014;-76
2022/07/09 10:12:39;;;;;;;8.15;2.60;;;18.80;99.90;;;;;;9177001;19;20094;-77
2022/07/09 10:15:51;;;;;;;8.60;3.13;;;19.00;99.90;;;;;;9178891;19;20411;-78
2022/07/09 10:18:56;;;;;;;9.27;3.08;;;19.30;99.90;;;;;;9178856;19;20018;-76
2022/07/09 10:22:03;;;;;;;7.70;2.90;;;19.20;99.90;;;;;;9178470;19;20368;-77
2022/07/09 10:25:07;;;;;;;;;;;19.10;99.90;;;;;;9177415;19;20014;-77
2022/07/09 10:28:17;;;;;;;5.03;2.88;;;19.50;99.90;;;;;;9175476;19;20317;-77
2022/07/09 10:31:23;;;;;;;9.00;3.38;;;19.30;99.90;;;;;;9179198;19;20014;-77
2022/07/09 10:35:00;;;;;;;6.60;2.50;;;19.10;99.90;;;;;;9178034;19;20363;-77
2022/07/09 10:38:06;;;;;;;11.10;4.10;;;19.20;99.90;;;;;;9177555;19;20017;-78
2022/07/09 10:41:10;;;;;;;5.25;2.92;;;19.30;99.90;;;;;;9179238;19;20010;-77
2022/07/09 10:44:14;;;;;;;6.72;2.63;;;19.60;99.90;;;;;;9177991;19;20034;-77
2022/07/09 10:47:18;;;;;;;8.52;2.15;;;19.50;99.90;;;;;;9177672;19;20010;-77
2022/07/09 10:50:22;;;;;;;7.18;2.03;;;19.40;99.90;;;;;;9176926;19;20055;-78
2022/07/09 10:53:32;;;;;;;13.57;2.50;;;19.10;99.90;;;;;;9176722;19;20013;-77
2022/07/09 10:56:40;;;;;;;3.78;1.80;;;18.90;99.90;;;;;;9177642;19;20027;-77
2022/07/09 10:59:48;;;;;;;9.27;2.03;;;18.50;99.90;;;;;;9174917;19;20037;-78
2022/07/09 11:02:56;;;;;;;8.05;2.35;;;18.70;99.90;;;;;;9177331;19;20010;-76
2022/07/09 11:06:01;;;;;;;8.10;3.10;;;18.50;99.90;;;;;;9177583;19;20359;-77
2022/07/09 11:09:17;;;;;;;7.93;2.15;;;18.50;99.90;;;;;;9176945;19;20049;-77
2022/07/09 11:12:22;;;;;;;5.15;2.00;;;18.60;99.90;;;;;;9175008;19;20014;-78
2022/07/09 11:15:26;;;;;;;11.50;2.63;;;18.60;99.90;;;;;;9182309;19;20019;-77
2022/07/09 11:18:31;;;;;;;7.30;2.20;;;18.90;99.90;;;;;;9187041;19;20022;-76
2022/07/09 11:21:35;;;;;;;6.18;2.10;;;18.90;99.90;;;;;;9186485;19;20037;-78
2022/07/09 11:24:42;;;;;;;8.85;2.70;;;19.10;99.90;;;;;;9184566;19;20500;-77
2022/07/09 11:27:46;;;;;;;11.45;3.03;;;19.20;99.90;;;;;;9182646;19;20646;-77
2022/07/09 11:31:00;;;;;;;8.32;2.20;;;19.10;99.90;;;;;;9185275;19;20014;-78
2022/07/09 11:34:14;;;;;;;8.32;2.05;;;18.80;99.90;;;;;;9185969;19;20007;-77
2022/07/09 11:37:25;;;;;;;7.78;1.83;;;18.90;99.90;;;;;;9185150;19;20025;-77
2022/07/09 11:40:32;;;;;;;7.25;2.05;;;18.90;99.90;;;;;;9185546;19;20017;-77
2022/07/09 11:43:36;;;;;;;8.82;2.47;;;19.20;99.90;;;;;;9184428;19;20010;-77
2022/07/09 11:46:40;;;;;;;7.28;2.28;;;19.10;99.90;;;;;;9184784;19;20043;-77
2022/07/09 11:49:46;;;;;;;8.45;1.92;;;19.40;99.90;;;;;;9184947;19;20381;-77
2022/07/09 11:52:51;;;;;;;9.88;2.15;;;19.50;99.90;;;;;;9182080;19;20015;-78
2022/07/09 11:56:06;;;;;;;11.13;2.33;;;19.50;99.90;;;;;;9184251;19;20060;-77
2022/07/09 11:59:10;;;;;;;6.82;1.98;;;19.50;99.90;;;;;;9184886;19;20007;-77
2022/07/09 12:02:25;;;;;;;5.10;1.60;;;19.60;99.90;;;;;;9184182;19;20018;-78
2022/07/09 12:05:32;;;;;;;4.50;1.50;;;19.80;99.90;;;;;;9184496;19;20014;-77
2022/07/09 12:08:36;;;;;;;6.47;1.38;;;20.10;99.90;;;;;;9184150;19;20003;-77
2022/07/09 12:11:42;;;;;;;13.45;1.63;;;19.90;99.90;;;;;;9182388;19;20479;-77
2022/07/09 12:14:46;;;;;;;7.13;1.60;;;19.90;99.90;;;;;;9183985;19;20024;-77
2022/07/09 12:17:54;;;;;;;3.53;1.30;;;19.70;99.90;;;;;;9183099;19;20014;-77
2022/07/09 12:20:57;;;;;;;5.57;1.40;;;19.90;99.90;;;;;;9183049;19;20014;-77
2022/07/09 12:24:01;;;;;;;3.85;1.40;;;20.10;99.90;;;;;;9184269;19;20029;-78
2022/07/09 12:27:08;;;;;;;7.25;1.63;;;20.30;99.90;;;;;;9180250;19;20481;-77
2022/07/09 12:30:13;;;;;;;3.80;1.15;;;20.30;99.60;;;;;;9183656;19;20006;-77
2022/07/09 12:33:17;;;;;;;4.40;1.25;;;20.40;99.60;;;;;;9180768;19;20006;-77
2022/07/09 12:36:21;;;;;;;4.68;1.35;;;20.50;99.70;;;;;;9183020;19;20015;-78
2022/07/09 12:39:25;;;;;;;7.93;1.55;;;20.30;99.40;;;;;;9182542;19;20022;-78
2022/07/09 12:42:32;;;;;;;2.92;1.23;;;20.30;99.20;;;;;;9182386;19;20478;-76
2022/07/09 12:45:35;;;;;;;4.13;1.67;;;20.40;99.00;;;;;;9182420;19;20523;-78
2022/07/09 12:48:39;;;;;;;5.68;1.73;;;20.40;99.50;;;;;;9181934;19;20361;-78
2022/07/09 12:51:43;;;;;;;3.28;1.33;;;20.50;98.40;;;;;;9180694;19;20022;-78
2022/07/09 12:54:47;;;;;;;5.18;1.33;;;20.60;98.50;;;;;;9182640;19;20014;-78
2022/07/09 12:57:54;;;;;;;2.35;1.05;;;20.70;98.20;;;;;;9181672;19;20021;-78
2022/07/09 13:00:58;;;;;;;6.00;1.52;;;21.20;99.00;;;;;;9181951;19;20034;-78
2022/07/09 13:04:03;;;;;;;4.13;1.60;;;21.20;97.90;;;;;;9179880;19;20049;-78
2022/07/09 13:07:07;;;;;;;2.63;1.00;;;21.20;97.00;;;;;;9181397;19;20011;-78
2022/07/09 13:10:11;;;;;;;5.85;1.20;;;21.10;96.90;;;;;;9181148;19;20010;-77
2022/07/09 13:13:18;;;;;;;6.55;1.23;;;21.10;96.40;;;;;;9179176;19;20014;-79
2022/07/09 13:16:22;;;;;;;6.25;1.40;;;21.00;96.40;;;;;;9181106;19;20070;-78
2022/07/09 13:19:26;;;;;;;4.78;1.17;;;21.20;96.70;;;;;;9180890;19;20017;-77
2022/07/09 13:22:29;;;;;;;5.03;1.15;;;21.30;96.60;;;;;;9181771;19;20538;-78
2022/07/09 13:25:33;;;;;;;4.88;1.33;;;21.50;95.50;;;;;;9180702;19;20014;-78
2022/07/09 13:28:40;;;;;;;5.00;1.10;;;21.60;95.20;;;;;;9183387;19;20018;-78
2022/07/09 13:31:44;;;;;;;5.07;1.10;;;21.90;95.10;;;;;;9183257;19;20070;-77
2022/07/09 13:34:48;;;;;;;4.55;1.38;;;21.90;94.70;;;;;;9181274;19;20006;-77
2022/07/09 13:37:52;;;;;;;6.05;1.88;;;21.90;94.30;;;;;;9178887;19;20017;-78
2022/07/09 13:40:56;;;;;;;4.95;1.10;;;21.60;92.90;;;;;;9180126;19;20010;-77
2022/07/09 13:44:02;;;;;;;4.30;1.10;;;21.50;94.70;;;;;;9180227;19;20022;-77
2022/07/09 13:47:06;;;;;;;11.38;1.70;;;21.40;94.40;;;;;;9179848;19;20063;-77
2022/07/09 13:50:11;;;;;;;7.47;1.50;;;21.30;94.70;;;;;;9179277;19;20018;-76
2022/07/09 13:53:15;;;;;;;5.72;1.30;;;21.00;94.60;;;;;;9177935;19;20019;-77
2022/07/09 13:56:19;;;;;;;6.75;1.63;;;21.00;94.80;;;;;;9180062;19;20100;-77
2022/07/09 13:59:26;;;;;;;7.63;1.40;;;20.80;94.80;;;;;;9179878;19;20002;-77
2022/07/09 14:02:32;;;;;;;3.30;1.13;;;20.30;94.90;;;;;;9179889;19;20090;-76
2022/07/09 14:05:39;;;;;;;3.15;1.02;;;20.40;95.40;;;;;;9178919;19;20122;-76
2022/07/09 14:08:43;;;;;;;4.72;1.40;;;20.30;95.90;;;;;;9178737;19;20022;-76
2022/07/09 14:11:47;;;;;;;7.15;1.30;;;20.30;95.20;;;;;;9177813;19;20014;-76
2022/07/09 14:14:53;;;;;;;7.43;1.65;;;20.40;95.90;;;;;;9176940;19;20367;-76
2022/07/09 14:17:57;;;;;;;4.72;1.63;;;20.20;95.00;;;;;;9178095;19;20094;-76
2022/07/09 14:21:01;;;;;;;6.00;1.90;;;19.70;94.60;;;;;;9178696;19;20269;-76
2022/07/09 14:24:05;;;;;;;4.25;1.58;;;19.60;95.60;;;;;;9178608;19;20078;-76
2022/07/09 14:27:09;;;;;;;4.88;1.50;;;19.70;96.10;;;;;;9177082;19;20021;-76
2022/07/09 14:30:16;;;;;;;6.55;2.33;;;19.50;96.10;;;;;;9177666;19;20019;-74
2022/07/09 14:33:20;;;;;;;5.78;2.38;;;19.30;96.20;;;;;;9176589;19;20015;-77
2022/07/09 14:36:24;;;;;;;12.45;3.72;;;19.10;96.50;;;;;;9177770;19;20010;-77
2022/07/09 14:39:28;;;;;;;9.50;3.00;;;19.10;96.80;;;;;;9177287;19;20025;-77
2022/07/09 14:42:31;;;;;;;6.13;1.92;;;18.90;96.80;;;;;;9177815;19;20010;-80
2022/07/09 14:45:38;;;;;;;6.50;1.70;;;18.60;97.30;;;;;;9177712;19;20011;-78
2022/07/09 14:48:42;;;;;;;6.13;2.70;;;18.70;98.10;;;;;;9180028;19;20017;-77
2022/07/09 14:51:47;;;;;;;8.43;4.20;;;18.80;98.20;;;;;;9184596;19;20026;-76
2022/07/09 14:54:50;;;;;;;6.03;3.42;;;19.30;98.70;;;;;;9187634;19;20019;-78
2022/07/09 14:57:54;;;;;;;6.05;1.92;;;19.20;98.80;;;;;;9187865;19;20070;-75
2022/07/09 15:01:01;;;;;;;15.35;4.55;;;19.10;98.10;;;;;;9186633;19;20021;-76
2022/07/09 15:04:05;;;;;;;5.40;1.70;;;19.10;98.40;;;;;;9186657;19;20007;-77
2022/07/09 15:07:09;;;;;;;6.65;1.85;;;19.30;98.30;;;;;;9186389;19;20073;-75
2022/07/09 15:10:13;;;;;;;6.88;2.08;;;19.00;98.10;;;;;;9187838;19;20085;-75
2022/07/09 15:13:17;;;;;;;9.07;2.67;;;18.70;98.30;;;;;;9183580;19;20020;-76
2022/07/09 15:16:24;;;;;;;5.35;1.60;;;18.80;98.20;;;;;;9186050;19;20020;-75
2022/07/09 15:19:28;;;;;;;4.97;1.90;;;18.70;98.10;;;;;;9185185;19;20015;-75
2022/07/09 15:22:31;;;;;;;9.00;1.55;;;18.80;98.30;;;;;;9186143;19;20007;-75
2022/07/09 15:25:35;;;;;;;6.90;2.17;;;18.90;98.40;;;;;;9185267;19;20084;-75
2022/07/09 15:28:39;;;;;;;3.58;1.40;;;18.80;97.30;;;;;;9185695;19;20018;-76
2022/07/09 15:31:46;;;;;;;7.05;2.05;;;18.80;97.60;;;;;;9188224;19;20021;-75
2022/07/09 15:34:49;;;;;;;4.78;1.80;;;18.80;98.00;;;;;;9185446;19;20073;-76
2022/07/09 15:37:54;;;;;;;6.78;1.58;;;18.80;97.60;;;;;;9185513;19;20019;-75
2022/07/09 15:40:57;;;;;;;4.82;1.65;;;18.60;98.30;;;;;;9185361;19;20459;-76
2022/07/09 15:44:04;;;;;;;9.57;2.03;;;18.70;98.60;;;;;;9186050;19;20006;-76
2022/07/09 15:47:11;;;;;;;6.28;1.75;;;18.60;98.60;;;;;;9186181;19;20010;-76
2022/07/09 15:50:15;;;;;;;10.45;2.38;;;18.70;98.90;;;;;;9185497;19;20023;-77
2022/07/09 15:53:19;;;;;;;9.50;2.65;;;18.90;98.50;;;;;;9184181;19;20563;-77
2022/07/09 15:56:23;;;;;;;5.38;1.80;;;18.90;98.60;;;;;;9186040;19;20015;-76
2022/07/09 15:59:27;;;;;;;7.32;2.40;;;18.70;98.40;;;;;;9184914;19;20595;-76
2022/07/09 16:02:34;;;;;;;11.13;2.47;;;18.50;98.90;;;;;;9183566;19;20021;-76